Time;durP1;ratioP1;P1;durP2;ratioP2;P2;SDS_P1;SDS_P2;PMS_P1;PMS_P2;Temp;Humidity;BMP_temperature;BMP_pressure;BME280_temperature;BME280_humidity;BME280_pressure;Samples;Min_cycle;Max_cycle;Signal;HPM_P1;HPM_P2
2024/01/14 00:02:20;;;;;;;17.77;3.67;;;4.40;94.60;;;;;;5027700;28;20029;-53
2024/01/14 00:04:46;;;;;;;14.45;2.38;;;4.40;94.40;;;;;;5018471;28;20407;-54
2024/01/14 00:07:12;;;;;;;19.20;2.88;;;4.30;94.30;;;;;;5011379;28;20408;-54
2024/01/14 00:09:39;;;;;;;11.52;2.45;;;4.30;94.20;;;;;;5011150;28;20072;-52
2024/01/14 00:12:07;;;;;;;11.25;2.40;;;4.10;94.10;;;;;;5011458;28;20029;-51
2024/01/14 00:14:33;;;;;;;12.43;3.15;;;4.00;94.10;;;;;;5011266;28;20374;-50
2024/01/14 00:17:00;;;;;;;14.38;2.30;;;3.90;94.10;;;;;;4993968;28;20086;-50
2024/01/14 00:19:27;;;;;;;15.68;2.42;;;3.90;94.20;;;;;;5011100;28;20040;-49
2024/01/14 00:21:54;;;;;;;16.83;2.72;;;3.90;94.30;;;;;;5011292;28;20127;-49
2024/01/14 00:24:20;;;;;;;10.57;2.03;;;3.80;94.30;;;;;;5011389;28;20045;-49
2024/01/14 00:26:47;;;;;;;12.57;3.60;;;3.80;94.30;;;;;;5011115;28;20029;-49
2024/01/14 00:29:15;;;;;;;16.85;3.25;;;3.70;94.30;;;;;;5010901;28;20037;-50
2024/01/14 00:31:43;;;;;;;12.82;3.40;;;3.70;94.20;;;;;;5011009;28;20018;-50
2024/01/14 00:34:13;;;;;;;13.30;2.00;;;3.70;94.30;;;;;;5011085;28;20026;-49
2024/01/14 00:36:40;;;;;;;19.30;3.03;;;3.70;94.30;;;;;;5010707;28;20029;-49
2024/01/14 00:39:06;;;;;;;24.95;3.05;;;3.60;94.20;;;;;;5043288;27;20034;-49
2024/01/14 00:41:33;;;;;;;25.48;4.03;;;3.60;94.30;;;;;;5010854;28;20037;-48
2024/01/14 00:44:02;;;;;;;24.08;3.22;;;3.60;94.30;;;;;;5011002;28;20466;-51
2024/01/14 00:46:27;;;;;;;13.13;3.15;;;3.60;94.30;;;;;;5026880;28;20046;-52
2024/01/14 00:48:54;;;;;;;16.58;3.22;;;3.60;94.50;;;;;;5030548;28;20113;-48
2024/01/14 00:51:20;;;;;;;16.23;4.03;;;3.60;94.50;;;;;;5030182;28;20021;-49
2024/01/14 00:53:47;;;;;;;20.27;4.90;;;3.50;94.40;;;;;;5010659;28;20408;-49
2024/01/14 00:56:13;;;;;;;22.17;4.32;;;3.50;94.50;;;;;;5010790;28;20133;-49
2024/01/14 00:58:41;;;;;;;18.23;4.32;;;3.50;94.60;;;;;;5013889;28;20018;-48
2024/01/14 01:01:09;;;;;;;19.00;3.90;;;3.50;94.70;;;;;;5010235;28;20458;-48
2024/01/14 01:03:38;;;;;;;17.92;3.53;;;3.60;94.70;;;;;;4996512;28;20045;-48
2024/01/14 01:06:05;;;;;;;22.33;4.20;;;3.70;94.80;;;;;;5016740;28;20072;-48
2024/01/14 01:08:32;;;;;;;26.55;4.43;;;3.80;94.90;;;;;;5019424;28;20437;-49
2024/01/14 01:10:58;;;;;;;20.83;4.05;;;4.00;94.70;;;;;;5010204;28;20038;-48
2024/01/14 01:13:25;;;;;;;25.48;4.80;;;4.00;94.40;;;;;;4993110;28;20034;-49
2024/01/14 01:15:52;;;;;;;24.00;5.30;;;4.00;93.80;;;;;;5010077;28;20026;-47
2024/01/14 01:18:18;;;;;;;21.38;4.00;;;4.00;93.40;;;;;;5009594;28;20030;-47
2024/01/14 01:20:45;;;;;;;18.08;3.83;;;4.00;93.00;;;;;;5009733;28;20022;-47
2024/01/14 01:23:12;;;;;;;17.75;3.42;;;4.10;92.60;;;;;;5009670;28;20049;-46
2024/01/14 01:25:39;;;;;;;18.45;4.03;;;4.10;92.20;;;;;;5009181;28;20022;-45
2024/01/14 01:28:05;;;;;;;20.70;3.95;;;4.10;91.80;;;;;;5009599;28;20093;-47
2024/01/14 01:30:32;;;;;;;24.15;4.78;;;4.20;91.70;;;;;;5009602;28;20072;-49
2024/01/14 01:32:59;;;;;;;19.13;3.90;;;4.20;91.80;;;;;;5009697;28;20026;-48
2024/01/14 01:35:26;;;;;;;15.25;2.70;;;4.20;91.10;;;;;;5009850;28;20037;-48
2024/01/14 01:37:53;;;;;;;11.80;1.95;;;4.10;90.60;;;;;;5024290;27;20030;-52
2024/01/14 01:40:19;;;;;;;13.10;3.63;;;4.10;90.60;;;;;;5034915;27;20097;-58
2024/01/14 01:42:46;;;;;;;10.82;2.70;;;4.00;91.00;;;;;;5010238;28;20121;-57
2024/01/14 01:45:13;;;;;;;22.67;4.05;;;4.00;91.60;;;;;;5008681;28;20065;-55
2024/01/14 01:47:39;;;;;;;19.63;4.25;;;4.00;92.30;;;;;;5010171;28;20058;-57
2024/01/14 01:50:06;;;;;;;16.52;2.35;;;3.90;92.80;;;;;;5009888;28;20037;-57
2024/01/14 01:52:38;;;;;;;4.75;1.63;;;3.80;92.80;;;;;;5010011;28;20347;-59
2024/01/14 01:55:06;;;;;;;13.02;3.50;;;3.70;92.80;;;;;;5010052;28;20026;-54
2024/01/14 01:57:35;;;;;;;18.20;1.90;;;3.70;92.50;;;;;;5021742;28;20395;-53
2024/01/14 02:00:03;;;;;;;10.00;2.75;;;3.70;92.00;;;;;;5019092;28;20384;-53
2024/01/14 02:02:29;;;;;;;12.48;1.67;;;3.60;91.70;;;;;;5009440;28;20054;-51
2024/01/14 02:04:56;;;;;;;11.85;2.45;;;3.60;91.80;;;;;;4992237;28;20478;-51
2024/01/14 02:07:23;;;;;;;11.63;2.03;;;3.70;91.80;;;;;;5009682;28;20045;-49
2024/01/14 02:09:50;;;;;;;14.80;3.13;;;3.70;91.60;;;;;;5009600;28;20034;-49
2024/01/14 02:12:17;;;;;;;12.95;2.67;;;3.70;91.60;;;;;;5009175;28;20396;-49
2024/01/14 02:14:44;;;;;;;20.83;3.88;;;3.70;91.50;;;;;;5009073;28;20151;-49
2024/01/14 02:17:09;;;;;;;18.10;2.90;;;3.70;91.60;;;;;;5009502;28;20281;-58
2024/01/14 02:19:36;;;;;;;19.10;3.08;;;3.80;91.70;;;;;;5009613;28;20032;-52
2024/01/14 02:22:08;;;;;;;19.92;4.75;;;3.80;91.90;;;;;;5009413;28;20036;-53
2024/01/14 02:24:37;;;;;;;12.73;2.30;;;3.80;92.50;;;;;;5009861;28;20032;-51
2024/01/14 02:27:06;;;;;;;14.65;2.00;;;3.80;92.90;;;;;;5009417;28;20030;-56
2024/01/14 02:29:37;;;;;;;14.75;4.07;;;3.70;92.80;;;;;;5010435;28;20030;-52
2024/01/14 02:32:04;;;;;;;8.88;1.83;;;3.50;92.80;;;;;;5009274;28;20049;-52
2024/01/14 02:34:35;;;;;;;12.80;1.90;;;3.50;92.60;;;;;;5009392;28;20040;-50
2024/01/14 02:37:02;;;;;;;10.48;2.35;;;3.50;92.50;;;;;;5008816;28;20022;-52
2024/01/14 02:39:28;;;;;;;14.50;2.20;;;3.50;92.50;;;;;;5009100;28;20037;-49
2024/01/14 02:41:55;;;;;;;11.25;2.10;;;3.50;92.40;;;;;;5009105;28;20014;-51
2024/01/14 02:44:23;;;;;;;11.43;1.98;;;3.50;92.20;;;;;;5009141;28;20022;-50
2024/01/14 02:46:50;;;;;;;22.77;2.85;;;3.40;92.20;;;;;;5009491;28;20022;-49
2024/01/14 02:49:17;;;;;;;10.55;2.92;;;3.40;92.30;;;;;;5008936;28;20105;-49
2024/01/14 02:51:46;;;;;;;20.35;2.10;;;3.40;92.40;;;;;;5009123;28;20095;-49
2024/01/14 02:54:13;;;;;;;13.38;2.65;;;3.50;92.50;;;;;;5008683;28;20045;-49
2024/01/14 02:56:39;;;;;;;11.52;2.63;;;3.40;92.40;;;;;;5011988;28;20114;-48
2024/01/14 02:59:06;;;;;;;9.32;1.90;;;3.40;92.60;;;;;;5015211;28;20170;-49
2024/01/14 03:01:33;;;;;;;13.25;2.15;;;3.40;92.90;;;;;;4997983;28;20075;-48
2024/01/14 03:04:00;;;;;;;9.93;1.92;;;3.50;93.20;;;;;;5015497;28;20036;-50
2024/01/14 03:06:30;;;;;;;10.88;2.15;;;3.40;93.30;;;;;;5014866;28;20022;-51
2024/01/14 03:08:56;;;;;;;7.93;1.33;;;3.40;93.30;;;;;;5030439;28;20025;-48
2024/01/14 03:11:22;;;;;;;9.75;2.25;;;3.40;93.00;;;;;;5014945;28;20343;-47
2024/01/14 03:13:49;;;;;;;11.63;3.03;;;3.30;92.80;;;;;;5015788;28;20040;-48
2024/01/14 03:16:15;;;;;;;8.85;2.42;;;3.30;92.70;;;;;;5015274;28;20030;-51
2024/01/14 03:18:41;;;;;;;8.85;1.70;;;3.30;92.50;;;;;;5015113;28;20599;-57
2024/01/14 03:21:08;;;;;;;7.28;2.42;;;3.40;92.30;;;;;;5015287;28;20075;-58
2024/01/14 03:23:35;;;;;;;7.38;1.10;;;3.40;92.20;;;;;;5015107;28;20068;-52
2024/01/14 03:26:02;;;;;;;6.90;1.02;;;3.40;92.10;;;;;;5015036;28;20027;-53
2024/01/14 03:28:29;;;;;;;4.97;1.00;;;3.30;92.10;;;;;;5015180;28;20343;-52
2024/01/14 03:30:56;;;;;;;8.32;1.10;;;3.20;92.10;;;;;;5015217;28;20029;-51
2024/01/14 03:33:22;;;;;;;12.15;3.10;;;3.20;92.20;;;;;;5014966;28;20026;-50
2024/01/14 03:35:48;;;;;;;13.50;1.98;;;3.10;92.20;;;;;;5015278;28;20028;-49
2024/01/14 03:38:15;;;;;;;8.30;1.38;;;3.00;92.30;;;;;;5047902;27;20467;-53
2024/01/14 03:40:42;;;;;;;12.40;2.03;;;3.00;92.20;;;;;;5064915;27;20460;-49
2024/01/14 03:43:09;;;;;;;10.52;2.67;;;2.90;92.30;;;;;;5019570;28;20041;-49
2024/01/14 03:45:36;;;;;;;10.77;1.92;;;2.90;92.50;;;;;;5014831;28;20458;-49
2024/01/14 03:48:02;;;;;;;15.75;3.85;;;3.00;92.60;;;;;;5014581;28;20439;-49
2024/01/14 03:50:29;;;;;;;10.85;2.78;;;3.00;92.80;;;;;;5014805;28;20045;-48
2024/01/14 03:52:54;;;;;;;9.05;1.92;;;3.10;93.00;;;;;;5014242;28;20110;-50
2024/01/14 03:55:21;;;;;;;11.60;1.65;;;3.30;93.10;;;;;;5014347;28;20050;-50
2024/01/14 03:57:48;;;;;;;9.30;1.88;;;3.30;92.70;;;;;;5014323;28;20026;-48
2024/01/14 04:00:15;;;;;;;9.00;1.33;;;3.30;92.40;;;;;;5014749;28;20014;-47
2024/01/14 04:02:41;;;;;;;13.55;1.92;;;3.30;91.80;;;;;;5014566;28;20087;-48
2024/01/14 04:05:08;;;;;;;5.65;1.17;;;3.30;91.20;;;;;;4997120;28;20034;-48
2024/01/14 04:07:35;;;;;;;4.25;1.52;;;3.30;90.60;;;;;;4995124;28;20154;-47
2024/01/14 04:10:02;;;;;;;5.97;0.93;;;3.20;90.30;;;;;;5011076;28;20025;-48
2024/01/14 04:12:29;;;;;;;8.07;1.35;;;3.20;90.20;;;;;;5012853;28;20366;-47
2024/01/14 04:14:55;;;;;;;10.27;1.30;;;3.20;90.20;;;;;;5010957;28;20049;-48
2024/01/14 04:17:22;;;;;;;5.45;1.80;;;3.10;90.30;;;;;;5011773;28;20033;-49
2024/01/14 04:19:49;;;;;;;11.75;1.85;;;3.10;90.50;;;;;;5010557;28;20018;-47
2024/01/14 04:22:15;;;;;;;13.55;2.13;;;3.10;90.70;;;;;;5010486;28;20083;-47
2024/01/14 04:24:44;;;;;;;9.45;2.08;;;3.10;90.80;;;;;;4993834;28;20033;-47
2024/01/14 04:27:11;;;;;;;12.40;3.03;;;3.00;91.10;;;;;;5011015;28;20022;-48
2024/01/14 04:29:37;;;;;;;10.52;2.42;;;3.10;91.30;;;;;;5010409;28;20022;-49
2024/01/14 04:32:04;;;;;;;17.05;3.75;;;3.10;91.30;;;;;;5017667;28;20490;-49
2024/01/14 04:34:31;;;;;;;8.45;1.75;;;3.10;91.20;;;;;;5017933;28;20040;-47
2024/01/14 04:36:58;;;;;;;16.17;2.97;;;3.10;91.20;;;;;;5016120;28;20570;-47
2024/01/14 04:39:25;;;;;;;12.75;2.15;;;3.10;91.10;;;;;;5022196;27;20057;-48
2024/01/14 04:41:53;;;;;;;15.10;3.67;;;3.10;91.00;;;;;;5020459;28;20456;-49
2024/01/14 04:44:18;;;;;;;16.95;2.53;;;3.00;91.10;;;;;;5018631;28;20036;-47
2024/01/14 04:46:47;;;;;;;14.30;3.47;;;3.00;91.00;;;;;;5014547;28;20022;-48
2024/01/14 04:49:14;;;;;;;13.30;2.90;;;3.00;91.00;;;;;;5011675;28;20492;-48
2024/01/14 04:51:39;;;;;;;12.10;2.28;;;3.00;91.10;;;;;;5010159;28;20030;-49
2024/01/14 04:54:07;;;;;;;20.08;2.80;;;3.00;91.00;;;;;;5009707;28;20071;-47
2024/01/14 04:56:36;;;;;;;12.18;3.72;;;2.90;90.70;;;;;;5010148;28;20029;-49
2024/01/14 04:59:03;;;;;;;8.15;2.63;;;2.70;90.80;;;;;;5009990;28;20246;-49
2024/01/14 05:01:29;;;;;;;12.65;1.38;;;2.60;90.90;;;;;;5010484;28;20030;-47
2024/01/14 05:03:56;;;;;;;12.25;1.60;;;2.50;91.00;;;;;;5004706;28;20036;-46
2024/01/14 05:06:23;;;;;;;12.35;1.60;;;2.50;91.30;;;;;;5017095;28;20025;-47
2024/01/14 05:08:49;;;;;;;7.13;2.42;;;2.50;91.60;;;;;;5016362;28;20048;-48
2024/01/14 05:11:16;;;;;;;12.80;2.13;;;2.50;91.60;;;;;;5016247;28;20041;-47
2024/01/14 05:13:41;;;;;;;11.10;2.58;;;2.50;91.80;;;;;;5018506;28;20339;-47
2024/01/14 05:16:09;;;;;;;17.27;3.85;;;2.50;91.90;;;;;;5016307;28;20026;-48
2024/01/14 05:18:38;;;;;;;10.27;3.70;;;2.50;92.00;;;;;;4998296;28;20022;-47
2024/01/14 05:21:06;;;;;;;13.25;2.60;;;2.50;92.20;;;;;;5017152;28;20057;-58
2024/01/14 05:23:33;;;;;;;15.55;3.85;;;2.60;92.70;;;;;;5016926;28;20030;-56
2024/01/14 05:26:03;;;;;;;9.75;2.72;;;2.70;93.10;;;;;;5017394;28;20033;-53
2024/01/14 05:28:34;;;;;;;12.70;2.38;;;2.80;93.20;;;;;;5021475;28;20089;-57
2024/01/14 05:31:02;;;;;;;7.13;1.83;;;2.80;93.20;;;;;;5020843;28;20030;-54
2024/01/14 05:33:30;;;;;;;14.35;2.45;;;2.80;93.20;;;;;;5005538;28;20021;-52
2024/01/14 05:35:55;;;;;;;14.05;4.13;;;2.80;93.20;;;;;;5022571;28;20113;-50
2024/01/14 05:38:22;;;;;;;19.33;2.70;;;2.80;93.30;;;;;;5024338;28;20072;-50
2024/01/14 05:40:51;;;;;;;16.10;1.77;;;2.80;93.70;;;;;;5023069;28;20014;-49
2024/01/14 05:43:17;;;;;;;13.75;1.52;;;2.80;93.70;;;;;;5022206;28;20026;-50
2024/01/14 05:45:44;;;;;;;11.30;1.65;;;2.80;93.50;;;;;;5022194;28;20056;-49
2024/01/14 05:48:12;;;;;;;8.88;2.55;;;2.80;93.40;;;;;;5014897;28;20054;-51
2024/01/14 05:50:38;;;;;;;8.25;1.35;;;2.70;93.30;;;;;;5009918;28;20014;-49
2024/01/14 05:53:05;;;;;;;8.73;1.85;;;2.70;93.10;;;;;;5009713;28;20090;-50
2024/01/14 05:55:30;;;;;;;6.60;1.52;;;2.70;93.00;;;;;;4994873;28;20089;-50
2024/01/14 05:57:57;;;;;;;12.07;2.80;;;2.60;92.70;;;;;;5009317;28;20018;-50
2024/01/14 06:00:24;;;;;;;10.90;3.33;;;2.70;92.70;;;;;;5026552;28;20074;-49
2024/01/14 06:02:50;;;;;;;6.43;1.95;;;2.60;92.60;;;;;;5027104;28;20029;-50
2024/01/14 06:05:17;;;;;;;10.15;2.75;;;2.60;92.70;;;;;;5025208;28;20036;-51
2024/01/14 06:07:44;;;;;;;10.52;2.22;;;2.60;92.80;;;;;;5026819;28;20614;-49
2024/01/14 06:10:11;;;;;;;10.90;2.28;;;2.60;93.00;;;;;;5024447;28;20049;-50
2024/01/14 06:12:38;;;;;;;11.05;2.10;;;2.70;93.20;;;;;;5005715;28;20170;-50
2024/01/14 06:15:07;;;;;;;8.52;2.47;;;2.70;93.20;;;;;;5026050;28;20064;-50
2024/01/14 06:17:34;;;;;;;11.82;1.50;;;2.70;93.30;;;;;;5026561;28;20482;-49
2024/01/14 06:20:01;;;;;;;11.07;1.70;;;2.80;93.30;;;;;;5025674;28;20040;-49
2024/01/14 06:22:27;;;;;;;9.20;1.13;;;2.80;93.20;;;;;;5024154;28;20025;-50
2024/01/14 06:24:53;;;;;;;6.40;1.75;;;2.80;93.20;;;;;;5023802;28;20463;-51
2024/01/14 06:27:20;;;;;;;5.40;1.50;;;2.90;93.20;;;;;;5026719;28;20468;-49
2024/01/14 06:29:46;;;;;;;6.80;0.93;;;2.90;93.20;;;;;;5023820;28;20157;-51
2024/01/14 06:32:12;;;;;;;9.07;2.22;;;3.00;93.10;;;;;;5025496;28;20110;-48
2024/01/14 06:34:41;;;;;;;8.27;1.55;;;2.90;92.90;;;;;;5025302;28;20117;-49
2024/01/14 06:37:07;;;;;;;9.93;1.20;;;3.00;93.00;;;;;;5008654;28;20017;-48
2024/01/14 06:39:34;;;;;;;8.10;1.40;;;2.90;92.90;;;;;;5029791;28;20032;-48
2024/01/14 06:42:01;;;;;;;7.60;1.40;;;3.00;93.00;;;;;;5023496;28;20087;-48
2024/01/14 06:44:33;;;;;;;7.10;1.63;;;2.90;93.10;;;;;;5025083;28;20029;-51
2024/01/14 06:46:58;;;;;;;10.50;2.70;;;2.90;93.20;;;;;;5011311;28;20030;-55
2024/01/14 06:49:25;;;;;;;7.57;1.60;;;3.00;93.50;;;;;;5008531;28;20327;-50
2024/01/14 06:51:52;;;;;;;9.75;3.38;;;3.00;93.60;;;;;;5008160;28;20089;-50
2024/01/14 06:54:17;;;;;;;4.75;1.83;;;3.10;93.60;;;;;;5011655;28;20037;-50
2024/01/14 06:56:47;;;;;;;4.60;1.48;;;3.10;93.50;;;;;;5008967;28;20073;-51
2024/01/14 06:59:23;;;;;;;6.93;1.80;;;3.00;93.40;;;;;;5008536;28;20030;-53
2024/01/14 07:01:50;;;;;;;7.63;1.30;;;2.90;93.30;;;;;;5013732;28;20049;-50
2024/01/14 07:04:19;;;;;;;5.28;1.40;;;2.90;93.20;;;;;;5016544;28;20083;-53
2024/01/14 07:06:45;;;;;;;7.80;1.70;;;2.90;93.20;;;;;;5014469;28;20109;-53
2024/01/14 07:09:14;;;;;;;9.32;1.50;;;2.70;93.10;;;;;;5010310;28;20109;-52
2024/01/14 07:11:39;;;;;;;10.02;2.05;;;2.70;92.90;;;;;;5008157;28;20075;-50
2024/01/14 07:14:06;;;;;;;5.60;1.35;;;2.60;92.90;;;;;;5007336;28;20042;-49
2024/01/14 07:16:33;;;;;;;6.32;1.20;;;2.50;92.70;;;;;;5010009;28;20083;-49
2024/01/14 07:19:00;;;;;;;4.68;1.60;;;2.40;92.60;;;;;;5009845;28;20037;-52
2024/01/14 07:21:27;;;;;;;9.10;1.35;;;2.40;92.70;;;;;;5013934;28;20040;-48
2024/01/14 07:23:56;;;;;;;6.00;1.20;;;2.30;92.90;;;;;;5017148;28;20029;-51
2024/01/14 07:26:23;;;;;;;5.28;1.73;;;2.40;93.00;;;;;;4991770;28;20145;-50
2024/01/14 07:28:51;;;;;;;8.45;1.52;;;2.30;92.90;;;;;;4990772;28;20066;-52
2024/01/14 07:31:21;;;;;;;16.20;2.83;;;2.40;93.00;;;;;;5011444;28;20034;-57
2024/01/14 07:33:50;;;;;;;;;;;2.40;93.00;;;;;;5008956;28;20133;-51
2024/01/14 07:36:19;;;;;;;;;;;2.40;93.10;;;;;;5008990;28;19913;-51
2024/01/14 07:38:45;;;;;;;7.63;1.67;;;2.40;93.10;;;;;;5032291;28;19909;-52
2024/01/14 07:41:17;;;;;;;7.13;2.13;;;2.50;93.20;;;;;;5017589;28;20037;-53
2024/01/14 07:43:46;;;;;;;7.65;2.92;;;2.50;93.10;;;;;;5017243;28;20343;-52
2024/01/14 07:46:12;;;;;;;9.70;3.30;;;2.50;93.10;;;;;;5016579;28;20050;-51
2024/01/14 07:48:41;;;;;;;10.57;3.13;;;2.40;93.00;;;;;;4994003;28;20091;-51
2024/01/14 07:51:13;;;;;;;13.45;3.95;;;2.40;93.10;;;;;;5014289;28;20030;-51
2024/01/14 07:53:40;;;;;;;16.27;4.68;;;2.30;93.00;;;;;;5015123;28;20423;-49
2024/01/14 07:56:05;;;;;;;10.48;3.72;;;2.40;93.10;;;;;;5013391;28;20098;-53
2024/01/14 07:58:32;;;;;;;12.75;2.60;;;2.30;92.90;;;;;;5018120;28;20033;-49
2024/01/14 08:01:00;;;;;;;11.27;3.65;;;2.30;93.00;;;;;;5023073;28;20022;-50
2024/01/14 08:03:27;;;;;;;4.93;2.20;;;2.30;93.20;;;;;;5011827;28;20033;-51
2024/01/14 08:05:54;;;;;;;13.85;2.70;;;2.30;93.30;;;;;;5013342;28;20058;-50
2024/01/14 08:08:21;;;;;;;9.82;3.47;;;2.40;93.40;;;;;;5013165;28;20811;-49
2024/01/14 08:10:48;;;;;;;7.82;3.33;;;2.40;93.50;;;;;;5010563;28;20030;-49
2024/01/14 08:13:15;;;;;;;9.73;2.17;;;2.50;93.60;;;;;;4999327;28;20036;-51
2024/01/14 08:15:44;;;;;;;9.52;3.15;;;2.60;93.70;;;;;;5002622;28;20025;-57
2024/01/14 08:18:10;;;;;;;9.03;3.13;;;2.70;93.60;;;;;;5020464;28;20078;-52
2024/01/14 08:20:36;;;;;;;10.82;2.97;;;2.70;93.70;;;;;;5019997;28;20702;-52
2024/01/14 08:23:02;;;;;;;10.48;3.28;;;2.70;93.60;;;;;;4997377;28;20313;-56
2024/01/14 08:25:29;;;;;;;8.52;2.00;;;2.70;93.60;;;;;;5015757;28;20113;-51
2024/01/14 08:27:56;;;;;;;14.27;2.13;;;2.80;93.70;;;;;;4992841;28;20361;-52
2024/01/14 08:30:22;;;;;;;6.93;2.33;;;2.70;93.70;;;;;;5011633;28;20511;-51
2024/01/14 08:32:48;;;;;;;6.93;2.45;;;2.70;93.70;;;;;;5023061;28;20082;-50
2024/01/14 08:35:15;;;;;;;12.65;2.72;;;2.80;93.70;;;;;;5017500;28;20354;-50
2024/01/14 08:37:46;;;;;;;4.85;1.90;;;2.80;93.60;;;;;;5017949;27;20068;-54
2024/01/14 08:40:14;;;;;;;14.13;2.20;;;2.70;93.60;;;;;;5013518;27;20463;-55
2024/01/14 08:42:44;;;;;;;9.23;1.75;;;2.70;93.70;;;;;;5020315;28;20026;-54
2024/01/14 08:45:12;;;;;;;5.85;1.90;;;2.70;93.70;;;;;;5016917;28;20077;-50
2024/01/14 08:47:39;;;;;;;11.18;1.88;;;2.70;93.70;;;;;;5019219;28;20097;-53
2024/01/14 08:50:11;;;;;;;7.03;1.65;;;2.80;93.80;;;;;;5018575;28;20060;-49
2024/01/14 08:52:38;;;;;;;10.45;2.55;;;2.70;93.60;;;;;;5019310;28;20389;-50
2024/01/14 08:55:08;;;;;;;9.07;1.55;;;2.80;93.70;;;;;;5009516;28;20521;-49
2024/01/14 08:57:39;;;;;;;7.38;1.40;;;2.80;93.70;;;;;;5009755;28;20087;-49
2024/01/14 09:00:09;;;;;;;10.38;2.20;;;2.90;93.80;;;;;;5010091;28;20046;-50
2024/01/14 09:02:36;;;;;;;10.75;1.88;;;2.90;93.60;;;;;;5010724;28;20359;-48
2024/01/14 09:05:03;;;;;;;10.60;1.83;;;3.00;93.60;;;;;;5010012;28;20030;-48
2024/01/14 09:07:30;;;;;;;8.68;1.65;;;3.10;93.70;;;;;;5009572;28;20117;-49
2024/01/14 09:09:57;;;;;;;9.27;1.45;;;3.30;93.80;;;;;;4993298;28;20034;-48
2024/01/14 09:12:24;;;;;;;5.95;1.40;;;3.40;93.60;;;;;;5010347;28;20059;-47
2024/01/14 09:14:49;;;;;;;8.55;1.30;;;3.60;93.60;;;;;;4992766;28;20363;-47
2024/01/14 09:17:17;;;;;;;5.93;1.48;;;3.70;93.40;;;;;;5018170;28;20121;-47
2024/01/14 09:19:44;;;;;;;4.50;1.30;;;3.80;93.40;;;;;;5013849;28;20041;-47
2024/01/14 09:22:11;;;;;;;7.72;2.03;;;3.80;93.10;;;;;;5020861;28;20478;-48
2024/01/14 09:24:43;;;;;;;9.38;2.22;;;3.90;93.00;;;;;;5019243;28;20041;-51
2024/01/14 09:27:10;;;;;;;9.98;3.13;;;3.90;92.90;;;;;;5009847;28;20022;-50
2024/01/14 09:29:35;;;;;;;11.50;4.40;;;3.90;92.90;;;;;;5009816;28;20022;-50
2024/01/14 09:32:03;;;;;;;11.20;3.78;;;4.00;92.60;;;;;;5009845;28;20034;-50
2024/01/14 09:34:29;;;;;;;5.72;1.90;;;4.00;92.50;;;;;;5020599;28;20017;-48
2024/01/14 09:36:56;;;;;;;7.05;1.40;;;4.00;92.30;;;;;;5022507;28;20033;-47
2024/01/14 09:39:23;;;;;;;7.75;1.77;;;4.00;92.10;;;;;;5104808;27;20083;-47
2024/01/14 09:42:14;;;;;;;4.90;1.40;;;4.00;91.90;;;;;;5025623;27;20029;-47
2024/01/14 09:44:42;;;;;;;5.38;1.13;;;4.00;91.90;;;;;;5009759;28;20175;-48
2024/01/14 09:47:10;;;;;;;5.65;1.95;;;4.10;91.90;;;;;;5009945;28;20040;-50
2024/01/14 09:49:37;;;;;;;12.65;2.70;;;4.30;91.90;;;;;;5010035;28;20039;-46
2024/01/14 09:52:05;;;;;;;6.38;1.80;;;4.40;91.80;;;;;;4995747;28;20228;-46
2024/01/14 09:54:32;;;;;;;11.35;2.85;;;4.50;91.70;;;;;;5008850;28;20018;-49
2024/01/14 09:57:09;;;;;;;17.77;8.20;;;4.50;91.40;;;;;;5016377;28;20025;-47
2024/01/14 09:59:37;;;;;;;13.80;5.13;;;4.50;91.30;;;;;;5009530;28;20119;-48
2024/01/14 10:02:07;;;;;;;9.82;4.28;;;4.50;91.40;;;;;;5012012;28;20040;-55
2024/01/14 10:04:36;;;;;;;14.40;5.68;;;4.40;91.20;;;;;;4992252;28;20037;-56
2024/01/14 10:07:04;;;;;;;9.35;3.40;;;4.40;91.30;;;;;;5010770;28;20029;-55
2024/01/14 10:09:34;;;;;;;6.35;1.63;;;4.40;91.30;;;;;;5009022;28;20022;-57
2024/01/14 10:12:03;;;;;;;11.75;2.65;;;4.20;91.40;;;;;;5009209;28;20046;-57
2024/01/14 10:14:30;;;;;;;5.30;1.63;;;4.10;91.50;;;;;;5009139;28;20042;-56
2024/01/14 10:16:59;;;;;;;7.15;1.60;;;4.00;91.90;;;;;;5008273;28;20088;-54
2024/01/14 10:19:24;;;;;;;11.88;2.78;;;3.90;92.10;;;;;;5007787;28;20030;-54
2024/01/14 10:21:53;;;;;;;6.35;1.88;;;3.90;92.10;;;;;;5021911;28;20030;-54
2024/01/14 10:24:24;;;;;;;9.17;3.47;;;3.90;92.20;;;;;;5009424;28;20034;-52
2024/01/14 10:26:54;;;;;;;11.32;3.00;;;3.90;92.30;;;;;;5009164;28;20026;-53
2024/01/14 10:29:21;;;;;;;11.48;3.47;;;4.00;92.50;;;;;;5008916;28;20030;-50
2024/01/14 10:31:49;;;;;;;14.27;3.80;;;4.10;92.80;;;;;;4985842;28;20062;-52
2024/01/14 10:34:19;;;;;;;10.32;3.08;;;4.30;92.90;;;;;;5011293;28;20059;-49
2024/01/14 10:36:48;;;;;;;;;;;4.40;92.70;;;;;;5019458;28;20431;-50
2024/01/14 10:39:16;;;;;;;15.43;3.73;;;4.40;92.70;;;;;;5050341;27;19910;-52
2024/01/14 10:41:43;;;;;;;7.40;2.75;;;4.50;92.70;;;;;;5009276;28;20492;-48
2024/01/14 10:44:12;;;;;;;6.70;2.40;;;4.70;93.00;;;;;;5009006;28;20038;-48
2024/01/14 10:46:41;;;;;;;8.98;1.60;;;4.90;93.30;;;;;;5008507;28;20046;-53
2024/01/14 10:49:10;;;;;;;9.63;2.33;;;4.90;92.70;;;;;;5008404;28;20092;-59
2024/01/14 10:51:50;;;;;;;4.03;1.38;;;4.70;92.40;;;;;;5022404;28;20525;-52
2024/01/14 10:54:39;;;;;;;6.63;0.80;;;4.60;92.10;;;;;;5009188;28;20049;-51
2024/01/14 10:57:32;;;;;;;2.20;0.98;;;4.40;92.00;;;;;;4993766;28;20087;-52
2024/01/14 11:00:06;;;;;;;3.15;1.80;;;4.30;92.00;;;;;;5017092;28;20488;-52
2024/01/14 11:02:34;;;;;;;0.55;0.38;;;4.10;91.70;;;;;;5016706;28;20399;-50
2024/01/14 11:05:06;;;;;;;1.60;0.45;;;4.00;91.90;;;;;;5016702;28;20448;-50
2024/01/14 11:07:36;;;;;;;1.73;0.60;;;4.00;92.00;;;;;;5017166;28;20080;-55
2024/01/14 11:10:15;;;;;;;5.47;0.65;;;3.90;92.00;;;;;;5016442;28;20485;-53
2024/01/14 11:13:21;;;;;;;2.85;0.57;;;3.90;91.90;;;;;;5012890;28;20356;-52
2024/01/14 11:15:52;;;;;;;1.70;0.88;;;3.90;92.00;;;;;;5009638;28;20022;-50
2024/01/14 11:19:00;;;;;;;3.20;0.80;;;3.90;92.10;;;;;;5011610;28;20450;-50
2024/01/14 11:22:01;;;;;;;2.05;0.70;;;3.90;92.20;;;;;;5012617;28;20450;-49
2024/01/14 11:24:31;;;;;;;4.85;1.20;;;4.00;92.30;;;;;;5011900;28;20455;-49
2024/01/14 11:26:58;;;;;;;6.07;0.88;;;4.00;92.30;;;;;;4994701;28;20057;-48
2024/01/14 11:29:34;;;;;;;6.28;1.27;;;4.10;92.40;;;;;;5011750;28;20033;-49
2024/01/14 11:32:12;;;;;;;7.28;1.88;;;4.20;92.50;;;;;;5011952;28;20045;-48
2024/01/14 11:34:51;;;;;;;4.90;1.77;;;4.40;92.60;;;;;;5011943;28;20040;-48
2024/01/14 11:37:45;;;;;;;8.18;2.45;;;4.40;92.60;;;;;;5012008;28;20062;-46
2024/01/14 11:40:30;;;;;;;9.50;3.67;;;4.50;92.60;;;;;;5020399;28;20462;-48
2024/01/14 11:43:03;;;;;;;8.48;3.10;;;4.60;92.50;;;;;;5011748;28;20030;-47
2024/01/14 11:45:34;;;;;;;6.60;1.35;;;4.60;92.20;;;;;;5021332;28;20068;-47
2024/01/14 11:48:04;;;;;;;4.65;1.40;;;4.50;92.00;;;;;;5027561;28;20072;-47
2024/01/14 11:50:32;;;;;;;6.43;2.40;;;4.60;91.90;;;;;;5017085;28;20029;-46
2024/01/14 11:53:01;;;;;;;6.05;0.95;;;4.60;91.80;;;;;;5014875;28;20342;-47
2024/01/14 11:55:48;;;;;;;7.80;1.58;;;4.60;91.80;;;;;;5011297;28;20493;-48
2024/01/14 11:58:17;;;;;;;7.93;1.52;;;4.70;91.40;;;;;;5011695;28;20026;-46
2024/01/14 12:00:46;;;;;;;11.02;1.70;;;4.70;90.90;;;;;;5025585;28;20108;-45
2024/01/14 12:03:14;;;;;;;5.03;1.50;;;4.60;90.20;;;;;;5023285;28;20093;-46
2024/01/14 12:05:42;;;;;;;6.85;1.30;;;4.60;90.50;;;;;;5011632;28;20454;-48
2024/01/14 12:08:09;;;;;;;7.22;1.40;;;4.60;90.80;;;;;;5011664;28;20109;-47
2024/01/14 12:10:36;;;;;;;10.23;2.55;;;4.50;91.10;;;;;;5021357;28;20025;-48
2024/01/14 12:13:04;;;;;;;3.72;0.82;;;4.60;91.90;;;;;;5002490;28;20042;-61
2024/01/14 12:15:33;;;;;;;7.95;1.02;;;4.60;90.00;;;;;;5011520;28;20113;-52
2024/01/14 12:18:01;;;;;;;11.60;2.88;;;4.50;90.50;;;;;;5010808;28;20082;-52
2024/01/14 12:20:29;;;;;;;11.52;2.20;;;4.60;91.90;;;;;;5020730;28;20094;-52
2024/01/14 12:22:58;;;;;;;10.70;1.92;;;4.90;92.50;;;;;;5012753;28;20022;-54
2024/01/14 12:25:25;;;;;;;7.32;1.38;;;4.90;91.80;;;;;;5009921;28;20160;-50
2024/01/14 12:27:52;;;;;;;4.47;1.10;;;4.60;90.80;;;;;;5010129;28;20041;-52
2024/01/14 12:30:36;;;;;;;4.88;0.93;;;4.50;91.20;;;;;;5009837;28;20050;-50
2024/01/14 12:33:12;;;;;;;6.00;2.30;;;4.40;91.60;;;;;;5010448;28;20597;-52
2024/01/14 12:35:39;;;;;;;7.53;2.35;;;4.40;91.80;;;;;;5019570;28;20037;-54
2024/01/14 12:38:08;;;;;;;8.80;2.85;;;4.40;92.00;;;;;;5048201;27;20028;-53
2024/01/14 12:40:36;;;;;;;8.23;1.83;;;4.30;92.20;;;;;;5010679;28;20477;-57
2024/01/14 12:43:01;;;;;;;7.43;1.50;;;4.20;92.20;;;;;;4993280;28;20381;-55
2024/01/14 12:45:29;;;;;;;4.50;1.05;;;4.10;92.20;;;;;;5010814;28;20060;-58
2024/01/14 12:48:02;;;;;;;3.47;0.80;;;3.90;92.00;;;;;;5022417;28;20466;-53
2024/01/14 12:50:36;;;;;;;7.60;2.88;;;3.90;92.10;;;;;;5010538;28;20053;-53
2024/01/14 12:53:11;;;;;;;3.95;1.23;;;3.80;92.20;;;;;;5013666;28;20038;-51
2024/01/14 12:55:38;;;;;;;6.15;1.30;;;3.80;92.50;;;;;;5026403;28;20055;-56
2024/01/14 12:58:04;;;;;;;5.28;1.23;;;3.80;93.00;;;;;;5025409;28;20045;-52
2024/01/14 13:00:30;;;;;;;7.80;3.83;;;3.80;93.10;;;;;;5016654;28;20032;-50